createdAt,value
2022-08-17T00:01:52.342Z,7.15
2022-08-17T00:04:23.082Z,7.03
2022-08-17T00:06:53.224Z,7.53
2022-08-17T00:09:20.948Z,7.63
2022-08-17T00:12:41.808Z,8.07
2022-08-17T00:14:38.406Z,7.40
2022-08-17T00:17:06.393Z,7.38
2022-08-17T00:19:35.549Z,8.60
2022-08-17T00:22:31.530Z,7.28
2022-08-17T00:24:54.856Z,8.02
2022-08-17T00:27:22.638Z,8.48
2022-08-17T00:29:50.351Z,9.00
2022-08-17T00:33:14.032Z,8.00
2022-08-17T00:35:09.596Z,8.32
2022-08-17T00:37:37.461Z,8.32
2022-08-17T00:40:06.825Z,8.48
2022-08-17T00:42:34.758Z,8.02
2022-08-17T00:45:04.381Z,8.00
2022-08-17T00:47:32.247Z,7.65
2022-08-17T00:50:00.034Z,8.00
2022-08-17T00:52:34.820Z,7.53
2022-08-17T00:55:05.767Z,7.70
2022-08-17T00:57:37.260Z,8.15
2022-08-17T01:00:09.854Z,7.70
2022-08-17T01:02:43.148Z,7.95
2022-08-17T01:05:20.693Z,8.45
2022-08-17T01:07:51.312Z,7.80
2022-08-17T01:10:59.223Z,8.13
2022-08-17T01:13:12.794Z,7.90
2022-08-17T01:15:46.196Z,9.32
2022-08-17T01:18:15.864Z,8.65
2022-08-17T01:20:48.968Z,8.73
2022-08-17T01:23:21.249Z,8.95
2022-08-17T01:25:51.241Z,8.85
2022-08-17T01:28:52.716Z,9.25
2022-08-17T01:31:09.055Z,9.00
2022-08-17T01:33:37.078Z,9.70
2022-08-17T01:36:06.913Z,8.68
2022-08-17T01:38:37.026Z,9.40
2022-08-17T01:41:09.453Z,9.65
2022-08-17T01:43:44.536Z,9.68
2022-08-17T01:46:16.550Z,9.52
2022-08-17T01:48:47.257Z,9.85
2022-08-17T01:51:16.461Z,8.60
2022-08-17T01:53:49.424Z,9.45
2022-08-17T01:56:20.349Z,10.00
2022-08-17T01:58:48.341Z,9.27
2022-08-17T02:01:18.502Z,9.65
2022-08-17T02:03:59.086Z,9.10
2022-08-17T02:06:29.801Z,10.57
2022-08-17T02:09:02.213Z,10.13
2022-08-17T02:11:33.507Z,9.63
2022-08-17T02:14:04.044Z,8.45
2022-08-17T02:16:36.834Z,9.05
2022-08-17T02:19:07.270Z,9.27
2022-08-17T02:21:35.162Z,9.63
2022-08-17T02:24:06.481Z,10.32
2022-08-17T02:26:34.559Z,10.13
2022-08-17T02:29:02.244Z,9.75
2022-08-17T02:31:31.103Z,10.38
2022-08-17T02:34:03.632Z,9.65
2022-08-17T02:36:32.430Z,9.60
2022-08-17T02:39:02.219Z,9.93
2022-08-17T02:41:31.560Z,10.05
2022-08-17T02:43:59.629Z,10.20
2022-08-17T02:46:27.862Z,9.57
2022-08-17T02:48:56.033Z,9.50
2022-08-17T02:51:24.150Z,9.75
2022-08-17T02:53:52.346Z,9.05
2022-08-17T02:56:34.412Z,10.23
2022-08-17T02:59:02.251Z,9.40
2022-08-17T03:01:30.350Z,10.05
2022-08-17T03:03:58.052Z,11.05
2022-08-17T03:06:25.881Z,10.68
2022-08-17T03:08:54.567Z,9.93
2022-08-17T03:11:22.331Z,8.95
2022-08-17T03:13:51.830Z,8.68
2022-08-17T03:16:19.618Z,9.02
2022-08-17T03:18:47.327Z,9.45
2022-08-17T03:21:15.150Z,9.77
2022-08-17T03:23:42.837Z,8.48
2022-08-17T03:26:15.299Z,9.02
2022-08-17T03:28:43.346Z,8.43
2022-08-17T03:31:12.489Z,8.85
2022-08-17T03:33:40.275Z,10.40
2022-08-17T03:36:08.705Z,10.27
2022-08-17T03:38:39.397Z,8.93
2022-08-17T03:41:07.759Z,8.90
2022-08-17T03:43:35.612Z,8.90
2022-08-17T03:46:34.214Z,9.77
2022-08-17T03:49:23.815Z,9.57
2022-08-17T03:52:09.551Z,8.65
2022-08-17T03:54:55.170Z,10.02
2022-08-17T03:57:23.014Z,9.77
2022-08-17T03:59:50.953Z,10.30
2022-08-17T04:02:22.550Z,10.05
2022-08-17T04:04:52.491Z,10.98
2022-08-17T04:07:22.056Z,10.27
2022-08-17T04:09:50.032Z,9.52
2022-08-17T04:12:18.714Z,7.80
2022-08-17T04:14:53.147Z,7.22
2022-08-17T04:17:24.328Z,10.15
2022-08-17T04:19:54.328Z,10.38
2022-08-17T04:22:30.689Z,11.30
2022-08-17T04:25:03.012Z,11.70
2022-08-17T04:27:30.840Z,11.32
2022-08-17T04:29:58.906Z,9.90
2022-08-17T04:33:04.850Z,10.20
2022-08-17T04:35:19.254Z,9.20
2022-08-17T04:37:47.356Z,9.35
2022-08-17T04:40:32.597Z,10.18
2022-08-17T04:43:07.072Z,10.32
2022-08-17T04:45:34.961Z,10.30
2022-08-17T04:48:02.691Z,8.80
2022-08-17T04:50:31.965Z,9.35
2022-08-17T04:53:00.418Z,9.73
2022-08-17T04:55:28.701Z,9.60
2022-08-17T04:57:56.609Z,9.23
2022-08-17T05:00:25.809Z,9.93
2022-08-17T05:02:55.968Z,9.73
2022-08-17T05:05:26.408Z,9.52
2022-08-17T05:07:57.553Z,8.52
2022-08-17T05:10:27.733Z,9.32
2022-08-17T05:13:00.342Z,10.75
2022-08-17T05:15:28.853Z,10.55
2022-08-17T05:18:01.054Z,10.45
2022-08-17T05:20:29.895Z,9.77
2022-08-17T05:23:01.642Z,10.15
2022-08-17T05:25:34.507Z,11.07
2022-08-17T05:28:06.529Z,12.38
2022-08-17T05:30:35.461Z,11.48
2022-08-17T05:33:06.019Z,11.63
2022-08-17T05:35:36.387Z,11.18
2022-08-17T05:38:05.927Z,11.85
2022-08-17T05:40:33.693Z,12.30
2022-08-17T05:43:06.729Z,13.63
2022-08-17T05:45:54.350Z,11.93
2022-08-17T05:48:22.874Z,12.18
2022-08-17T05:51:29.311Z,12.82
2022-08-17T05:54:10.656Z,11.43
2022-08-17T05:57:00.907Z,11.90
2022-08-17T05:59:38.716Z,11.85
2022-08-17T06:02:17.153Z,11.27
2022-08-17T06:05:05.546Z,11.88
2022-08-17T06:07:43.438Z,12.02
2022-08-17T06:10:18.292Z,10.82
2022-08-17T06:12:57.448Z,10.55
2022-08-17T06:15:32.508Z,11.88
2022-08-17T06:18:04.902Z,11.65
2022-08-17T06:20:39.882Z,12.35
2022-08-17T06:23:15.357Z,11.52
2022-08-17T06:25:49.236Z,11.93
2022-08-17T06:28:27.696Z,11.95
2022-08-17T06:31:01.384Z,12.98
2022-08-17T06:33:35.082Z,11.88
2022-08-17T06:36:16.267Z,12.82
2022-08-17T06:38:58.301Z,11.68
2022-08-17T06:41:37.557Z,10.20
2022-08-17T06:44:42.207Z,9.77
2022-08-17T06:47:13.482Z,9.85
2022-08-17T06:49:54.648Z,10.05
2022-08-17T06:52:42.294Z,9.40
2022-08-17T06:55:18.918Z,10.40
2022-08-17T06:57:53.048Z,9.07
2022-08-17T07:02:57.763Z,10.23
2022-08-17T07:08:03.547Z,8.80
2022-08-17T07:10:39.092Z,9.52
2022-08-17T07:13:25.613Z,9.40
2022-08-17T07:15:57.497Z,9.02
2022-08-17T07:18:33.026Z,9.02
2022-08-17T07:21:17.562Z,9.50
2022-08-17T07:24:01.775Z,9.52
2022-08-17T07:26:29.902Z,8.05
2022-08-17T07:29:01.771Z,7.18
2022-08-17T07:31:33.646Z,6.43
2022-08-17T07:34:08.727Z,6.75
2022-08-17T07:36:36.600Z,6.57
2022-08-17T07:39:06.578Z,6.18
2022-08-17T07:41:53.283Z,7.30
2022-08-17T07:44:27.600Z,6.20
2022-08-17T07:47:13.225Z,6.72
2022-08-17T07:49:44.633Z,6.93
2022-08-17T07:52:47.660Z,6.22
2022-08-17T07:55:27.679Z,5.85
2022-08-17T07:57:57.338Z,6.28
2022-08-17T08:00:32.123Z,5.88
2022-08-17T08:03:20.274Z,5.97
2022-08-17T08:05:52.470Z,6.30
2022-08-17T08:08:29.078Z,5.78
2022-08-17T08:11:04.246Z,5.22
2022-08-17T08:13:33.215Z,5.60
2022-08-17T08:16:23.802Z,5.50
2022-08-17T08:18:56.848Z,5.32
2022-08-17T08:21:36.739Z,5.55
2022-08-17T08:24:23.525Z,5.35
2022-08-17T08:27:00.257Z,5.18
2022-08-17T08:29:34.376Z,5.53
2022-08-17T08:32:18.219Z,5.18
2022-08-17T08:35:01.759Z,5.20
2022-08-17T08:37:43.282Z,5.38
2022-08-17T08:40:29.872Z,5.57
2022-08-17T08:43:05.174Z,5.35
2022-08-17T08:45:43.887Z,4.97
2022-08-17T08:48:53.238Z,5.70
2022-08-17T08:51:23.040Z,5.38
2022-08-17T08:53:59.890Z,5.00
2022-08-17T08:56:37.568Z,5.35
2022-08-17T08:59:16.826Z,5.55
2022-08-17T09:01:53.196Z,5.53
2022-08-17T09:05:12.836Z,5.90
2022-08-17T09:07:44.763Z,6.85
2022-08-17T09:10:24.586Z,6.10
2022-08-17T09:13:09.571Z,6.95
2022-08-17T09:15:43.554Z,6.55
2022-08-17T09:18:59.820Z,6.90
2022-08-17T09:21:18.462Z,6.60
2022-08-17T09:23:59.525Z,5.70
2022-08-17T09:26:32.697Z,6.40
2022-08-17T09:29:07.361Z,5.35
2022-08-17T09:31:47.102Z,6.30
2022-08-17T09:34:21.202Z,6.47
2022-08-17T09:36:57.438Z,6.78
2022-08-17T09:39:31.804Z,6.53
2022-08-17T09:42:05.997Z,6.47
2022-08-17T09:44:41.021Z,6.00
2022-08-17T09:47:15.458Z,6.13
2022-08-17T09:49:48.325Z,5.93
2022-08-17T09:52:21.357Z,5.63
2022-08-17T09:54:51.029Z,5.40
2022-08-17T09:57:32.324Z,5.88
2022-08-17T10:00:20.006Z,5.90
2022-08-17T10:03:24.123Z,6.05
2022-08-17T10:06:01.974Z,5.78
2022-08-17T10:08:43.047Z,5.30
2022-08-17T10:11:33.634Z,5.78
2022-08-17T10:14:36.304Z,5.15
2022-08-17T10:17:04.570Z,5.35
2022-08-17T10:19:38.650Z,5.68
2022-08-17T10:22:34.478Z,6.60
2022-08-17T10:25:30.206Z,5.50
2022-08-17T10:28:19.969Z,4.72
2022-08-17T10:31:10.451Z,4.15
2022-08-17T10:33:53.971Z,5.07
2022-08-17T10:36:28.221Z,4.72
2022-08-17T10:39:07.185Z,3.90
2022-08-17T10:41:44.309Z,3.65
2022-08-17T10:44:39.558Z,3.58
2022-08-17T10:47:12.723Z,3.45
2022-08-17T10:49:45.655Z,4.05
2022-08-17T10:52:49.914Z,4.32
2022-08-17T10:55:20.448Z,6.28
2022-08-17T10:57:52.908Z,4.38
2022-08-17T11:01:12.659Z,4.38
2022-08-17T11:03:54.778Z,4.38
2022-08-17T11:06:33.124Z,4.53
2022-08-17T11:09:18.530Z,4.30
2022-08-17T11:12:06.556Z,5.30
2022-08-17T11:15:01.666Z,5.82
2022-08-17T11:17:50.760Z,6.55
2022-08-17T11:20:55.694Z,5.85
2022-08-17T11:23:35.132Z,5.45
2022-08-17T11:26:08.307Z,5.60
2022-08-17T11:28:48.635Z,5.90
2022-08-17T11:31:39.117Z,5.68
2022-08-17T11:34:15.293Z,6.03
2022-08-17T11:37:12.846Z,5.65
2022-08-17T11:39:56.674Z,6.43
2022-08-17T11:42:37.428Z,7.32
2022-08-17T11:45:32.521Z,7.47
2022-08-17T11:48:28.309Z,7.70
2022-08-17T11:51:19.065Z,7.47
2022-08-17T11:54:31.251Z,7.35
2022-08-17T11:56:53.282Z,7.15
2022-08-17T11:59:59.490Z,6.32
2022-08-17T12:02:47.890Z,7.53
2022-08-17T12:05:33.167Z,7.30
2022-08-17T12:08:08.564Z,7.25
2022-08-17T12:10:40.865Z,6.97
2022-08-17T12:13:15.604Z,6.60
2022-08-17T12:15:48.638Z,7.22
2022-08-17T12:18:24.479Z,7.13
2022-08-17T12:21:20.950Z,6.78
2022-08-17T12:23:56.956Z,6.95
2022-08-17T12:26:30.248Z,7.60
2022-08-17T12:29:01.388Z,7.20
2022-08-17T12:31:32.415Z,7.22
2022-08-17T12:34:00.499Z,6.47
2022-08-17T12:36:30.005Z,6.95
2022-08-17T12:39:14.481Z,6.88
2022-08-17T12:41:46.914Z,7.03
2022-08-17T12:44:17.390Z,7.38
2022-08-17T12:46:54.826Z,7.03
2022-08-17T12:49:31.754Z,7.18
2022-08-17T12:52:15.612Z,6.97
2022-08-17T12:54:51.578Z,7.68
2022-08-17T12:57:21.679Z,7.53
2022-08-17T12:59:53.063Z,7.40
2022-08-17T13:02:30.244Z,7.20
2022-08-17T13:05:01.388Z,6.28
2022-08-17T13:07:37.457Z,6.43
2022-08-17T13:10:08.068Z,5.85
2022-08-17T13:12:37.323Z,5.95
2022-08-17T13:15:06.100Z,6.20
2022-08-17T13:17:36.793Z,5.72
2022-08-17T13:20:06.716Z,5.70
2022-08-17T13:22:36.034Z,6.40
2022-08-17T13:25:08.429Z,5.35
2022-08-17T13:27:36.558Z,5.57
2022-08-17T13:30:11.575Z,5.75
2022-08-17T13:32:45.103Z,5.40
2022-08-17T13:35:39.374Z,5.28
2022-08-17T13:38:12.361Z,5.40
2022-08-17T13:40:43.677Z,4.82
2022-08-17T13:43:12.529Z,5.20
2022-08-17T13:45:50.993Z,5.15
2022-08-17T13:48:28.942Z,5.57
2022-08-17T13:51:12.666Z,5.60
2022-08-17T13:53:53.463Z,4.70
2022-08-17T13:56:54.365Z,5.10
2022-08-17T13:59:53.485Z,4.82
2022-08-17T14:02:25.988Z,4.75
2022-08-17T14:04:56.774Z,4.97
2022-08-17T14:07:30.106Z,4.95
2022-08-17T14:10:03.383Z,5.22
2022-08-17T14:12:34.290Z,5.32
2022-08-17T14:15:02.802Z,4.70
2022-08-17T14:17:35.048Z,4.75
2022-08-17T14:20:07.579Z,4.88
2022-08-17T14:22:38.393Z,4.60
2022-08-17T14:25:10.502Z,4.32
2022-08-17T14:27:51.990Z,4.50
2022-08-17T14:30:23.557Z,4.70
2022-08-17T14:32:52.717Z,4.93
2022-08-17T14:35:23.124Z,4.65
2022-08-17T14:37:51.721Z,4.10
2022-08-17T14:40:22.615Z,4.60
2022-08-17T14:42:50.841Z,3.97
2022-08-17T14:45:30.422Z,5.07
2022-08-17T14:48:02.656Z,4.93
2022-08-17T14:50:35.168Z,4.30
2022-08-17T14:53:04.547Z,4.07
2022-08-17T14:55:34.008Z,4.10
2022-08-17T14:58:01.895Z,4.43
2022-08-17T15:00:29.796Z,4.15
2022-08-17T15:02:59.958Z,4.15
2022-08-17T15:05:30.531Z,4.55
2022-08-17T15:07:59.140Z,4.22
2022-08-17T15:10:27.797Z,4.03
2022-08-17T15:12:57.194Z,4.40
2022-08-17T15:15:25.208Z,3.95
2022-08-17T15:17:53.667Z,4.30
2022-08-17T15:20:24.651Z,3.90
2022-08-17T15:22:54.996Z,4.07
2022-08-17T15:25:23.574Z,4.28
2022-08-17T15:27:51.782Z,4.18
2022-08-17T15:30:21.489Z,4.05
2022-08-17T15:32:53.982Z,4.65
2022-08-17T15:35:27.829Z,4.50
2022-08-17T15:38:07.827Z,4.43
2022-08-17T15:40:39.961Z,4.32
2022-08-17T15:43:08.313Z,4.70
2022-08-17T15:45:38.122Z,4.50
2022-08-17T15:48:06.890Z,4.60
2022-08-17T15:50:34.700Z,4.53
2022-08-17T15:53:03.536Z,5.00
2022-08-17T15:55:32.571Z,4.35
2022-08-17T15:58:00.998Z,4.90
2022-08-17T16:00:29.577Z,5.22
2022-08-17T16:03:45.126Z,5.40
2022-08-17T16:05:50.211Z,4.90
2022-08-17T16:08:21.338Z,4.88
2022-08-17T16:10:49.851Z,4.88
2022-08-17T16:13:18.823Z,5.00
2022-08-17T16:15:56.609Z,5.50
2022-08-17T16:18:31.369Z,4.57
2022-08-17T16:21:19.733Z,4.57
2022-08-17T16:23:48.040Z,5.20
2022-08-17T16:26:15.968Z,4.70
2022-08-17T16:28:43.871Z,4.80
2022-08-17T16:31:12.145Z,4.38
2022-08-17T16:33:41.399Z,5.03
2022-08-17T16:36:09.656Z,4.97
2022-08-17T16:38:38.581Z,4.53
2022-08-17T16:41:07.333Z,5.13
2022-08-17T16:43:35.666Z,4.93
2022-08-17T16:46:06.408Z,4.47
2022-08-17T16:48:34.288Z,4.85
2022-08-17T16:51:04.386Z,5.00
2022-08-17T16:53:32.598Z,5.30
2022-08-17T16:56:00.494Z,5.50
2022-08-17T16:58:28.447Z,5.43
2022-08-17T17:00:59.652Z,5.65
2022-08-17T17:03:31.278Z,5.28
2022-08-17T17:06:08.023Z,5.32
2022-08-17T17:08:44.893Z,5.68
2022-08-17T17:11:16.122Z,5.70
2022-08-17T17:13:48.401Z,5.88
2022-08-17T17:16:21.520Z,6.32
2022-08-17T17:19:04.533Z,6.07
2022-08-17T17:21:38.737Z,7.82
2022-08-17T17:24:14.658Z,6.93
2022-08-17T17:26:57.497Z,6.15
2022-08-17T17:29:47.738Z,6.03
2022-08-17T17:32:22.368Z,5.88
2022-08-17T17:35:05.000Z,5.70
2022-08-17T17:37:36.287Z,6.00
2022-08-17T17:40:10.407Z,6.45
2022-08-17T17:42:41.535Z,5.32
2022-08-17T17:45:18.123Z,5.90
2022-08-17T17:47:46.605Z,6.82
2022-08-17T17:50:16.674Z,6.78
2022-08-17T17:52:58.759Z,6.53
2022-08-17T17:55:37.295Z,6.97
2022-08-17T17:58:23.285Z,7.40
2022-08-17T18:01:03.638Z,6.30
2022-08-17T18:03:50.429Z,6.78
2022-08-17T18:06:30.271Z,5.55
2022-08-17T18:09:10.511Z,5.97
2022-08-17T18:12:00.679Z,6.68
2022-08-17T18:14:43.827Z,6.25
2022-08-17T18:17:11.889Z,6.32
2022-08-17T18:19:39.953Z,6.25
2022-08-17T18:22:14.386Z,6.60
2022-08-17T18:24:46.317Z,6.78
2022-08-17T18:27:24.547Z,6.45
2022-08-17T18:29:54.161Z,6.88
2022-08-17T18:32:29.028Z,6.97
2022-08-17T18:34:59.354Z,5.80
2022-08-17T18:37:49.012Z,6.47
2022-08-17T18:40:39.190Z,5.93
2022-08-17T18:43:14.302Z,6.35
2022-08-17T18:45:46.417Z,7.32
2022-08-17T18:48:25.346Z,6.60
2022-08-17T18:50:55.177Z,7.63
2022-08-17T18:53:33.229Z,7.30
2022-08-17T18:56:30.741Z,7.03
2022-08-17T18:59:06.611Z,6.88
2022-08-17T19:01:41.704Z,6.80
2022-08-17T19:04:34.702Z,6.90
2022-08-17T19:07:08.952Z,6.90
2022-08-17T19:12:27.203Z,6.88
2022-08-17T19:15:00.684Z,8.30
2022-08-17T19:17:36.760Z,10.88
2022-08-17T19:20:17.582Z,10.73
2022-08-17T19:22:57.313Z,7.75
2022-08-17T19:25:29.196Z,7.90
2022-08-17T19:28:21.629Z,7.65
2022-08-17T19:30:55.773Z,7.13
2022-08-17T19:33:23.902Z,7.00
2022-08-17T19:36:02.459Z,7.28
2022-08-17T19:38:41.958Z,6.80
2022-08-17T19:41:17.471Z,6.57
2022-08-17T19:43:55.646Z,7.10
2022-08-17T19:46:30.971Z,6.22
2022-08-17T19:49:12.572Z,6.70
2022-08-17T19:51:48.659Z,7.10
2022-08-17T19:54:23.648Z,7.00
2022-08-17T19:57:01.575Z,6.40
2022-08-17T19:59:49.031Z,6.38
2022-08-17T20:02:28.843Z,6.95
2022-08-17T20:05:01.222Z,6.88
2022-08-17T20:07:36.729Z,7.00
2022-08-17T20:10:07.958Z,6.97
2022-08-17T20:12:38.497Z,6.55
2022-08-17T20:15:12.507Z,6.80
2022-08-17T20:20:29.816Z,5.90
2022-08-17T20:23:03.689Z,6.53
2022-08-17T20:25:37.002Z,6.43
2022-08-17T20:28:17.373Z,6.65
2022-08-17T20:30:47.025Z,6.50
2022-08-17T20:33:26.786Z,6.43
2022-08-17T20:36:15.649Z,6.75
2022-08-17T20:38:45.773Z,7.78
2022-08-17T20:41:16.774Z,7.35
2022-08-17T20:44:03.754Z,7.85
2022-08-17T20:46:52.696Z,6.68
2022-08-17T20:49:27.032Z,7.40
2022-08-17T20:52:02.378Z,7.32
2022-08-17T20:54:49.693Z,7.32
2022-08-17T20:57:47.809Z,7.25
2022-08-17T21:00:42.616Z,8.13
2022-08-17T21:03:58.259Z,7.43
2022-08-17T21:06:29.733Z,7.63
2022-08-17T21:09:19.102Z,8.02
2022-08-17T21:12:04.584Z,7.75
2022-08-17T21:14:41.925Z,7.82
2022-08-17T21:17:29.601Z,8.40
2022-08-17T21:20:12.574Z,7.80
2022-08-17T21:22:57.534Z,7.32
2022-08-17T21:25:48.261Z,7.72
2022-08-17T21:28:23.108Z,7.53
2022-08-17T21:31:08.953Z,8.35
2022-08-17T21:33:38.988Z,7.95
2022-08-17T21:36:25.711Z,7.97
2022-08-17T21:39:02.223Z,7.13
2022-08-17T21:41:33.389Z,7.80
2022-08-17T21:44:14.163Z,7.60
2022-08-17T21:46:46.920Z,7.03
2022-08-17T21:49:19.328Z,7.32
2022-08-17T21:51:50.280Z,7.60
2022-08-17T21:54:35.618Z,7.68
2022-08-17T21:57:07.106Z,7.00
2022-08-17T21:59:39.274Z,7.50
2022-08-17T22:02:09.315Z,7.38
2022-08-17T22:04:39.514Z,7.45
2022-08-17T22:07:09.871Z,7.05
2022-08-17T22:09:46.629Z,7.28
2022-08-17T22:12:18.980Z,6.78
2022-08-17T22:15:00.351Z,7.38
2022-08-17T22:17:30.110Z,7.60
2022-08-17T22:20:01.972Z,7.28
2022-08-17T22:22:35.390Z,8.68
2022-08-17T22:25:06.842Z,8.90
2022-08-17T22:27:50.050Z,9.93
2022-08-17T22:30:29.261Z,9.77
2022-08-17T22:32:57.997Z,8.98
2022-08-17T22:35:31.414Z,9.93
2022-08-17T22:38:30.236Z,6.45
2022-08-17T22:41:34.430Z,6.50
2022-08-17T22:44:10.090Z,7.87
2022-08-17T22:46:41.498Z,6.85
2022-08-17T22:49:09.325Z,8.50
2022-08-17T22:51:37.929Z,8.70
2022-08-17T22:54:35.090Z,8.30
2022-08-17T22:57:23.831Z,6.70
2022-08-17T22:59:53.944Z,4.45
2022-08-17T23:02:27.749Z,6.03
2022-08-17T23:05:16.747Z,3.92
2022-08-17T23:07:47.266Z,4.18
2022-08-17T23:10:15.795Z,5.97
2022-08-17T23:12:43.573Z,6.13
2022-08-17T23:15:15.316Z,5.38
2022-08-17T23:17:43.161Z,5.65
2022-08-17T23:20:15.453Z,5.00
2022-08-17T23:22:51.822Z,5.13
2022-08-17T23:25:26.888Z,5.45
2022-08-17T23:27:54.789Z,5.80
2022-08-17T23:30:25.514Z,5.38
2022-08-17T23:32:54.295Z,5.07
2022-08-17T23:35:40.242Z,4.85
2022-08-17T23:38:11.182Z,5.35
2022-08-17T23:40:39.974Z,5.30
2022-08-17T23:43:24.106Z,4.85
2022-08-17T23:45:54.633Z,5.72
2022-08-17T23:48:33.017Z,4.93
2022-08-17T23:51:09.585Z,5.05
2022-08-17T23:53:44.048Z,5.63
2022-08-17T23:56:11.984Z,5.45
2022-08-17T23:58:44.726Z,5.38
